Time;durP1;ratioP1;P1;durP2;ratioP2;P2;SDS_P1;SDS_P2;PMS_P1;PMS_P2;Temp;Humidity;BMP_temperature;BMP_pressure;BME280_temperature;BME280_humidity;BME280_pressure;Samples;Min_cycle;Max_cycle;Signal;HPM_P1;HPM_P2
2022/04/30 00:02:09;;;;;;;11.38;7.57;;;6.30;87.50;;;;;;5031251;28;20068;-64
2022/04/30 00:04:40;;;;;;;17.15;7.82;;;6.20;87.70;;;;;;5041534;28;20039;-65
2022/04/30 00:07:06;;;;;;;17.83;7.53;;;6.20;87.90;;;;;;5042874;28;20380;-65
2022/04/30 00:09:32;;;;;;;16.13;8.05;;;6.20;87.90;;;;;;5035006;28;20473;-65
2022/04/30 00:11:59;;;;;;;17.02;7.05;;;6.10;88.10;;;;;;5032016;28;20128;-65
2022/04/30 00:14:26;;;;;;;13.30;6.55;;;6.00;88.20;;;;;;5046584;28;20563;-65
2022/04/30 00:16:51;;;;;;;15.43;7.60;;;6.00;88.70;;;;;;5037627;28;20055;-65
2022/04/30 00:19:19;;;;;;;18.73;7.80;;;5.90;88.60;;;;;;5038990;28;20033;-65
2022/04/30 00:21:44;;;;;;;13.70;7.10;;;5.80;88.90;;;;;;5033723;28;20037;-66
2022/04/30 00:24:10;;;;;;;16.90;7.78;;;5.80;88.90;;;;;;5042171;28;20115;-65
2022/04/30 00:26:35;;;;;;;16.67;7.57;;;5.80;89.30;;;;;;5029459;28;20466;-65
2022/04/30 00:29:01;;;;;;;14.77;7.70;;;5.70;89.30;;;;;;5037942;28;20052;-64
2022/04/30 00:31:27;;;;;;;19.15;8.05;;;5.70;89.70;;;;;;5048592;28;20037;-65
2022/04/30 00:33:53;;;;;;;16.65;8.27;;;5.70;89.70;;;;;;5043611;28;20421;-64
2022/04/30 00:36:19;;;;;;;14.80;7.35;;;5.80;90.00;;;;;;5042750;28;20132;-65
2022/04/30 00:38:44;;;;;;;20.52;8.00;;;5.70;90.00;;;;;;5044359;28;20117;-65
2022/04/30 00:41:10;;;;;;;12.52;7.13;;;5.80;90.10;;;;;;5040154;28;20519;-65
2022/04/30 00:43:46;;;;;;;19.67;8.02;;;5.80;90.10;;;;;;5038893;28;20105;-65
2022/04/30 00:46:16;;;;;;;15.95;7.68;;;5.70;90.40;;;;;;5040377;28;20055;-65
2022/04/30 00:48:42;;;;;;;18.48;8.35;;;5.80;90.30;;;;;;5037257;28;20048;-65
2022/04/30 00:51:10;;;;;;;17.67;8.13;;;5.70;90.20;;;;;;5049141;28;20061;-65
2022/04/30 00:53:41;;;;;;;15.05;7.93;;;5.80;90.30;;;;;;5038347;28;20045;-66
2022/04/30 00:56:09;;;;;;;19.33;8.15;;;5.80;90.40;;;;;;5036116;28;20047;-66
2022/04/30 00:58:37;;;;;;;15.50;7.82;;;5.80;90.40;;;;;;5037316;28;20072;-66
2022/04/30 01:01:04;;;;;;;16.67;7.60;;;5.90;90.40;;;;;;5037978;28;20045;-65
2022/04/30 01:03:30;;;;;;;13.85;7.72;;;5.90;90.40;;;;;;5030076;28;20045;-65
2022/04/30 01:05:58;;;;;;;14.48;7.68;;;5.90;90.30;;;;;;5051970;28;20111;-66
2022/04/30 01:08:27;;;;;;;16.45;8.18;;;5.90;90.40;;;;;;5040086;28;20116;-65
2022/04/30 01:10:53;;;;;;;13.57;7.60;;;6.00;90.40;;;;;;5043664;28;20359;-66
2022/04/30 01:13:20;;;;;;;15.32;8.13;;;6.00;90.40;;;;;;5033630;28;20742;-66
2022/04/30 01:15:46;;;;;;;15.07;8.05;;;6.00;90.50;;;;;;5036049;28;20633;-65
2022/04/30 01:18:12;;;;;;;18.45;8.60;;;6.00;90.40;;;;;;5054039;28;20490;-66
2022/04/30 01:20:42;;;;;;;15.30;7.75;;;5.90;90.50;;;;;;5035511;28;20060;-65
2022/04/30 01:23:09;;;;;;;13.52;6.95;;;6.00;90.70;;;;;;5036402;28;20041;-66
2022/04/30 01:25:37;;;;;;;13.65;7.75;;;5.90;90.70;;;;;;5030166;28;20037;-66
2022/04/30 01:28:04;;;;;;;20.45;7.88;;;5.90;90.70;;;;;;5028898;28;20040;-66
2022/04/30 01:30:30;;;;;;;20.02;8.52;;;5.90;90.80;;;;;;5038942;28;20038;-66
2022/04/30 01:38:34;;;;;;;15.20;8.05;;;5.80;90.90;;;;;;5033970;28;20983;-65
2022/04/30 01:41:00;;;;;;;16.80;7.40;;;5.70;91.10;;;;;;5048712;28;20037;-65
2022/04/30 01:43:27;;;;;;;17.77;7.95;;;5.70;91.20;;;;;;5041654;28;20036;-65
2022/04/30 01:45:53;;;;;;;13.13;7.72;;;5.60;91.20;;;;;;5032330;28;20076;-66
2022/04/30 01:48:20;;;;;;;22.10;8.65;;;5.60;91.40;;;;;;5032844;28;20501;-65
2022/04/30 01:50:46;;;;;;;17.13;8.35;;;5.60;91.20;;;;;;5039002;28;20127;-65
2022/04/30 01:53:11;;;;;;;16.73;7.65;;;5.50;91.30;;;;;;5013494;28;20447;-66
2022/04/30 01:55:37;;;;;;;19.25;8.43;;;5.50;91.50;;;;;;5036829;28;20574;-65
2022/04/30 01:58:04;;;;;;;13.73;7.90;;;5.50;91.50;;;;;;5046870;28;20511;-65
2022/04/30 02:00:30;;;;;;;13.98;7.95;;;5.40;91.40;;;;;;5042195;28;21167;-65
2022/04/30 02:03:02;;;;;;;17.02;7.85;;;5.40;91.50;;;;;;5031163;28;20034;-65
2022/04/30 02:05:28;;;;;;;16.13;7.75;;;5.30;91.60;;;;;;5034703;28;20358;-65
2022/04/30 02:07:58;;;;;;;15.00;7.90;;;5.30;91.60;;;;;;5048033;28;20043;-66
2022/04/30 02:10:24;;;;;;;17.60;8.32;;;5.30;91.70;;;;;;5033993;28;20037;-65
2022/04/30 02:12:51;;;;;;;15.13;8.07;;;5.30;91.80;;;;;;5026622;28;20037;-66
2022/04/30 02:15:18;;;;;;;16.17;7.70;;;5.30;91.70;;;;;;5029159;28;20049;-65
2022/04/30 02:17:46;;;;;;;14.98;7.43;;;5.30;91.60;;;;;;5035990;28;20131;-66
2022/04/30 02:20:24;;;;;;;15.05;7.13;;;5.20;91.60;;;;;;5029787;28;20470;-66
2022/04/30 02:22:51;;;;;;;17.45;8.48;;;5.20;91.60;;;;;;5032151;28;20440;-65
2022/04/30 02:25:18;;;;;;;16.33;7.60;;;5.20;91.60;;;;;;5040868;28;20372;-66
2022/04/30 02:27:46;;;;;;;16.75;7.78;;;5.10;91.70;;;;;;5030129;28;20389;-65
2022/04/30 02:30:19;;;;;;;14.52;7.32;;;5.10;91.70;;;;;;5043064;28;20040;-66
2022/04/30 02:32:46;;;;;;;15.55;7.72;;;5.20;92.10;;;;;;5046657;28;20384;-66
2022/04/30 02:35:16;;;;;;;17.80;7.65;;;5.20;92.20;;;;;;5037155;28;20033;-66
2022/04/30 02:37:45;;;;;;;12.20;7.13;;;5.20;92.20;;;;;;5038147;28;20106;-66
2022/04/30 02:40:18;;;;;;;16.30;8.10;;;5.20;92.20;;;;;;5046253;28;20037;-65
2022/04/30 02:42:44;;;;;;;14.93;8.13;;;5.20;92.20;;;;;;5033586;28;20037;-65
2022/04/30 02:45:12;;;;;;;15.10;8.05;;;5.20;92.10;;;;;;5040152;28;20048;-66
2022/04/30 02:47:39;;;;;;;15.95;7.78;;;5.20;92.10;;;;;;5047402;28;20037;-66
2022/04/30 02:50:08;;;;;;;17.25;7.50;;;5.20;92.20;;;;;;5041623;28;20033;-66
2022/04/30 02:52:35;;;;;;;17.92;8.02;;;5.20;92.30;;;;;;5039786;28;20048;-65
2022/04/30 02:55:00;;;;;;;15.82;8.07;;;5.20;92.30;;;;;;5033992;28;20110;-65
2022/04/30 03:00:29;;;;;;;12.38;7.32;;;5.20;92.60;;;;;;5037027;28;20042;-66
2022/04/30 03:02:56;;;;;;;14.23;7.95;;;5.20;92.40;;;;;;5016949;28;20029;-66
2022/04/30 03:05:22;;;;;;;15.93;7.53;;;5.20;92.30;;;;;;5036521;28;20056;-65
2022/04/30 03:07:48;;;;;;;14.10;7.22;;;5.20;92.50;;;;;;5035503;28;20037;-66
2022/04/30 03:10:14;;;;;;;16.63;8.63;;;5.20;92.60;;;;;;5043946;28;20104;-65
2022/04/30 03:12:40;;;;;;;17.55;7.75;;;5.30;92.50;;;;;;5033096;28;20041;-65
2022/04/30 03:15:06;;;;;;;14.15;6.95;;;5.30;92.70;;;;;;5035205;28;20580;-65
2022/04/30 03:23:01;;;;;;;15.35;7.72;;;5.30;92.70;;;;;;5040114;28;20108;-66
2022/04/30 03:25:26;;;;;;;14.35;7.90;;;5.30;92.80;;;;;;5031834;28;20466;-66
2022/04/30 03:27:52;;;;;;;13.82;7.78;;;5.30;92.70;;;;;;5052240;28;21126;-66
2022/04/30 03:30:17;;;;;;;16.48;7.63;;;5.30;92.70;;;;;;5060602;28;20124;-65
2022/04/30 03:32:43;;;;;;;13.00;7.72;;;5.30;92.80;;;;;;5047085;28;20041;-66
2022/04/30 03:35:09;;;;;;;17.92;7.82;;;5.20;92.60;;;;;;5041646;28;20045;-65
2022/04/30 03:37:35;;;;;;;12.85;7.40;;;5.20;92.60;;;;;;5045099;28;20033;-66
2022/04/30 03:40:01;;;;;;;14.18;7.55;;;5.10;92.60;;;;;;5043510;28;20040;-66
2022/04/30 03:42:27;;;;;;;13.35;7.07;;;5.10;92.50;;;;;;5041780;28;20032;-66
2022/04/30 03:44:53;;;;;;;14.27;7.63;;;5.00;92.50;;;;;;5050913;28;20040;-65
2022/04/30 03:47:20;;;;;;;14.05;7.75;;;4.90;92.80;;;;;;5043883;28;20045;-66
2022/04/30 03:49:46;;;;;;;16.25;7.72;;;4.90;92.80;;;;;;5048695;28;20048;-66
2022/04/30 03:52:12;;;;;;;14.90;7.70;;;4.90;92.80;;;;;;5034327;28;20610;-65
2022/04/30 03:54:39;;;;;;;14.82;7.45;;;4.90;92.90;;;;;;5037461;28;20053;-66
2022/04/30 03:57:04;;;;;;;19.08;7.32;;;4.80;92.90;;;;;;5035948;28;20048;-65
2022/04/30 03:59:30;;;;;;;15.15;7.88;;;4.80;93.20;;;;;;5030779;28;20042;-65
2022/04/30 04:01:55;;;;;;;12.55;7.10;;;4.80;93.30;;;;;;5038534;28;20041;-66
2022/04/30 04:04:21;;;;;;;13.55;7.85;;;4.80;93.00;;;;;;5035247;28;20456;-65
2022/04/30 04:06:47;;;;;;;12.70;7.22;;;4.70;93.00;;;;;;5037993;28;20433;-66
2022/04/30 04:09:12;;;;;;;15.10;7.40;;;4.70;93.10;;;;;;5034469;28;20061;-66
2022/04/30 04:11:38;;;;;;;13.15;7.47;;;4.70;93.30;;;;;;5048097;28;20093;-65
2022/04/30 04:19:32;;;;;;;15.70;7.72;;;4.70;93.60;;;;;;5031464;28;20045;-65
2022/04/30 04:21:58;;;;;;;14.98;7.50;;;4.60;93.30;;;;;;5041551;28;20049;-65
2022/04/30 04:27:08;;;;;;;15.65;7.82;;;4.60;93.20;;;;;;5047784;28;20128;-65
2022/04/30 04:29:33;;;;;;;11.57;6.70;;;4.60;93.30;;;;;;5044852;28;20112;-65
2022/04/30 04:31:59;;;;;;;13.63;7.18;;;4.70;93.40;;;;;;5041880;28;20033;-65
2022/04/30 04:34:24;;;;;;;17.45;8.15;;;4.70;93.30;;;;;;5041029;28;20041;-65
2022/04/30 04:36:50;;;;;;;13.10;7.88;;;4.70;93.50;;;;;;5041603;28;20033;-65
2022/04/30 04:39:16;;;;;;;11.02;6.78;;;4.80;93.60;;;;;;5047069;28;20041;-65
2022/04/30 04:41:42;;;;;;;15.02;7.03;;;4.80;93.60;;;;;;5042368;28;20033;-65
2022/04/30 04:44:09;;;;;;;14.55;7.35;;;4.90;93.80;;;;;;5036183;28;20124;-66
2022/04/30 04:46:35;;;;;;;11.13;6.95;;;4.90;93.70;;;;;;5036515;28;20493;-65
2022/04/30 04:49:01;;;;;;;15.80;7.95;;;5.00;93.80;;;;;;5037456;28;20039;-65
2022/04/30 04:51:27;;;;;;;14.10;7.45;;;5.00;93.70;;;;;;5029717;28;20448;-65
2022/04/30 04:53:54;;;;;;;13.02;7.25;;;5.10;93.80;;;;;;5040021;28;20098;-65
2022/04/30 04:56:20;;;;;;;16.40;7.53;;;5.10;93.70;;;;;;5036387;28;20055;-65
2022/04/30 04:58:45;;;;;;;13.98;7.18;;;5.20;93.70;;;;;;5039214;28;20473;-65
2022/04/30 05:01:11;;;;;;;13.90;7.97;;;5.30;93.70;;;;;;5041836;28;20059;-65
2022/04/30 05:03:36;;;;;;;20.45;8.10;;;5.40;93.70;;;;;;5036628;28;20051;-66
2022/04/30 05:06:02;;;;;;;14.93;8.15;;;5.40;93.60;;;;;;5037727;28;20432;-65
2022/04/30 05:08:27;;;;;;;12.25;7.22;;;5.50;93.70;;;;;;5036051;28;20041;-66
2022/04/30 05:10:53;;;;;;;15.15;7.30;;;5.50;93.60;;;;;;5035515;28;20406;-66
2022/04/30 05:13:19;;;;;;;15.00;7.72;;;5.50;93.50;;;;;;5040998;28;20425;-64
2022/04/30 05:15:44;;;;;;;15.02;7.55;;;5.50;93.60;;;;;;5041403;28;20032;-66
2022/04/30 05:18:10;;;;;;;14.70;7.47;;;5.50;93.60;;;;;;5017980;28;20055;-66
2022/04/30 05:20:35;;;;;;;15.18;7.85;;;5.50;93.60;;;;;;5043485;28;20045;-65
2022/04/30 05:23:01;;;;;;;13.65;7.55;;;5.60;93.60;;;;;;5040505;28;20515;-66
2022/04/30 05:25:26;;;;;;;16.27;7.43;;;5.60;93.80;;;;;;5042869;28;20076;-65
2022/04/30 05:27:52;;;;;;;17.80;7.82;;;5.60;93.70;;;;;;5032937;28;20117;-65
2022/04/30 05:30:18;;;;;;;12.93;7.15;;;5.60;93.80;;;;;;5032417;28;20606;-65
2022/04/30 05:32:43;;;;;;;12.07;7.35;;;5.60;93.70;;;;;;5031593;28;20457;-65
2022/04/30 05:35:10;;;;;;;17.33;8.02;;;5.70;93.80;;;;;;5039954;28;20458;-65
2022/04/30 05:37:35;;;;;;;15.40;8.15;;;5.70;93.90;;;;;;5046972;28;20059;-66
2022/04/30 05:40:01;;;;;;;12.40;7.78;;;5.80;93.80;;;;;;5040667;28;20029;-66
2022/04/30 05:42:26;;;;;;;11.68;7.07;;;5.90;93.90;;;;;;5040419;28;20060;-65
2022/04/30 05:44:52;;;;;;;17.00;7.88;;;6.00;93.80;;;;;;5035360;28;20037;-66
2022/04/30 05:47:18;;;;;;;15.52;8.27;;;6.00;93.80;;;;;;5033033;28;20502;-65
2022/04/30 05:49:44;;;;;;;14.00;7.65;;;6.20;93.70;;;;;;5040419;28;20038;-66
2022/04/30 05:52:11;;;;;;;14.82;8.13;;;6.30;93.70;;;;;;5040462;28;20532;-65
2022/04/30 05:54:37;;;;;;;17.60;7.65;;;6.40;93.60;;;;;;5036692;28;20060;-65
2022/04/30 05:57:03;;;;;;;13.02;7.53;;;6.50;93.50;;;;;;5036218;28;20041;-66
2022/04/30 05:59:28;;;;;;;18.85;8.60;;;6.60;93.50;;;;;;5030949;28;20041;-66
2022/04/30 06:01:54;;;;;;;15.27;7.80;;;6.70;93.40;;;;;;5030251;28;20067;-66
2022/04/30 06:04:21;;;;;;;19.48;8.43;;;6.80;93.40;;;;;;5045884;28;20041;-65
2022/04/30 06:06:46;;;;;;;14.45;7.95;;;7.00;93.20;;;;;;5029017;28;20041;-65
2022/04/30 06:09:12;;;;;;;11.52;7.57;;;7.10;93.10;;;;;;5034003;28;20044;-65
2022/04/30 06:11:38;;;;;;;13.30;8.05;;;7.30;93.10;;;;;;5035465;28;20369;-65
2022/04/30 06:14:04;;;;;;;13.63;7.93;;;7.50;93.00;;;;;;5035853;28;20112;-65
2022/04/30 06:16:30;;;;;;;13.10;7.70;;;7.70;92.90;;;;;;5048782;28;20167;-65
2022/04/30 06:18:55;;;;;;;10.02;7.03;;;8.10;93.10;;;;;;5030907;28;20044;-65
2022/04/30 06:21:23;;;;;;;13.93;7.05;;;8.50;93.00;;;;;;5040112;28;20068;-66
2022/04/30 06:23:48;;;;;;;8.82;6.50;;;8.70;92.80;;;;;;5039433;28;20045;-65
2022/04/30 06:26:14;;;;;;;12.88;7.47;;;9.00;92.70;;;;;;5044191;28;20699;-66
2022/04/30 06:28:39;;;;;;;8.63;6.10;;;9.50;92.40;;;;;;5044486;28;20477;-65
2022/04/30 06:31:05;;;;;;;12.55;6.57;;;9.90;92.10;;;;;;5040732;28;20033;-66
2022/04/30 06:33:30;;;;;;;11.20;6.50;;;10.30;91.80;;;;;;5047730;28;20075;-65
2022/04/30 06:35:56;;;;;;;9.45;6.03;;;10.60;91.40;;;;;;5039374;28;20519;-67
2022/04/30 06:38:22;;;;;;;9.85;5.68;;;10.90;90.70;;;;;;5039391;28;20552;-67
2022/04/30 06:40:48;;;;;;;7.00;5.43;;;11.10;90.20;;;;;;5040177;28;20389;-66
2022/04/30 06:43:13;;;;;;;8.85;5.85;;;11.40;89.10;;;;;;5037440;28;20124;-66
2022/04/30 06:45:39;;;;;;;8.73;5.45;;;11.50;87.90;;;;;;5016396;28;20168;-67
2022/04/30 06:48:05;;;;;;;14.90;5.28;;;11.80;86.50;;;;;;5039958;28;20077;-65
2022/04/30 06:50:30;;;;;;;7.80;5.68;;;11.90;86.00;;;;;;5044660;28;20037;-66
2022/04/30 06:58:25;;;;;;;9.52;4.68;;;12.60;81.60;;;;;;5037674;28;20678;-66
2022/04/30 07:03:24;;;;;;;9.00;5.53;;;12.90;79.20;;;;;;5034093;28;20045;-66
2022/04/30 07:06:03;;;;;;;10.57;4.70;;;12.80;78.70;;;;;;5046215;28;20481;-67
2022/04/30 07:08:30;;;;;;;7.82;4.40;;;12.80;76.00;;;;;;5047207;28;20120;-65
2022/04/30 07:10:56;;;;;;;7.72;4.20;;;13.00;77.10;;;;;;5040756;28;20033;-67
2022/04/30 07:13:21;;;;;;;5.85;4.25;;;13.10;76.30;;;;;;5035550;28;20056;-67
2022/04/30 07:15:47;;;;;;;8.68;4.60;;;13.20;75.70;;;;;;5035736;28;20095;-65
2022/04/30 07:18:12;;;;;;;5.55;3.92;;;13.20;74.50;;;;;;5052245;28;20098;-65
2022/04/30 07:20:39;;;;;;;7.35;4.55;;;13.20;73.80;;;;;;5039041;28;20056;-66
2022/04/30 07:23:04;;;;;;;7.82;3.80;;;13.30;73.30;;;;;;5062451;28;20045;-67
2022/04/30 07:25:30;;;;;;;8.52;4.05;;;13.40;73.00;;;;;;5036932;28;20544;-66
2022/04/30 07:27:55;;;;;;;9.25;4.20;;;13.20;72.70;;;;;;5046067;28;20037;-66
2022/04/30 07:30:21;;;;;;;7.25;4.25;;;13.00;72.40;;;;;;5034189;28;20053;-65
2022/04/30 07:32:46;;;;;;;6.05;4.13;;;12.80;72.10;;;;;;5029806;28;20040;-65
2022/04/30 07:35:12;;;;;;;8.20;4.90;;;12.70;72.20;;;;;;5037155;28;20046;-66
2022/04/30 07:37:38;;;;;;;6.95;4.55;;;12.50;72.40;;;;;;5039830;28;20065;-67
2022/04/30 07:40:04;;;;;;;12.40;5.30;;;12.40;72.50;;;;;;5043219;28;20095;-65
2022/04/30 07:42:30;;;;;;;6.78;4.88;;;12.30;72.60;;;;;;5033619;28;20063;-66
2022/04/30 07:44:59;;;;;;;8.40;5.40;;;12.30;72.80;;;;;;5041593;28;20123;-66
2022/04/30 07:47:28;;;;;;;8.70;5.45;;;12.20;72.60;;;;;;5052236;28;20041;-65
2022/04/30 07:49:53;;;;;;;8.45;5.03;;;12.20;72.70;;;;;;5052543;28;20051;-66
2022/04/30 07:52:19;;;;;;;9.93;4.93;;;12.30;72.70;;;;;;5051644;28;20037;-65
2022/04/30 07:54:45;;;;;;;8.25;4.75;;;12.30;72.50;;;;;;5046239;28;20155;-65
2022/04/30 07:57:11;;;;;;;6.65;4.75;;;12.30;72.30;;;;;;5049428;28;20053;-65
2022/04/30 07:59:36;;;;;;;8.82;5.30;;;12.40;72.00;;;;;;5053098;28;20052;-65
2022/04/30 08:02:04;;;;;;;7.63;4.82;;;12.40;72.40;;;;;;5038036;28;20042;-65
2022/04/30 08:04:30;;;;;;;7.70;4.32;;;12.50;71.70;;;;;;5051666;28;20131;-67
2022/04/30 08:06:55;;;;;;;9.52;4.93;;;12.70;71.30;;;;;;5049448;28;20112;-65
2022/04/30 08:09:21;;;;;;;7.93;4.55;;;12.80;70.90;;;;;;5051652;28;20032;-64
2022/04/30 08:11:47;;;;;;;6.35;4.50;;;13.00;70.30;;;;;;5040901;28;20446;-65
2022/04/30 08:14:12;;;;;;;6.93;4.35;;;13.00;69.60;;;;;;5049768;28;20087;-65
2022/04/30 08:16:38;;;;;;;7.35;4.55;;;13.10;69.10;;;;;;5045415;28;20037;-65
2022/04/30 08:19:04;;;;;;;7.90;4.40;;;13.20;68.80;;;;;;5051535;28;20611;-66
2022/04/30 08:21:29;;;;;;;7.70;4.85;;;13.40;68.20;;;;;;5040050;28;20053;-67
2022/04/30 08:23:55;;;;;;;7.18;4.90;;;13.40;68.10;;;;;;5052350;28;20037;-65
2022/04/30 08:26:20;;;;;;;7.47;4.28;;;13.30;67.90;;;;;;5038758;28;20184;-67
2022/04/30 08:28:46;;;;;;;8.07;4.60;;;13.30;68.10;;;;;;5037171;28;20078;-66
2022/04/30 08:31:11;;;;;;;8.70;4.82;;;13.40;67.60;;;;;;5045339;28;20551;-65
2022/04/30 08:33:37;;;;;;;6.85;4.25;;;13.30;67.60;;;;;;5037757;28;20041;-66
2022/04/30 08:36:03;;;;;;;9.60;4.60;;;13.30;67.00;;;;;;5036455;28;20048;-65
2022/04/30 08:38:30;;;;;;;7.30;4.78;;;13.60;66.70;;;;;;5049609;28;20056;-64
2022/04/30 08:40:55;;;;;;;8.90;3.85;;;13.80;66.20;;;;;;5051385;28;20048;-66
2022/04/30 08:43:21;;;;;;;6.80;4.50;;;14.30;65.80;;;;;;5049776;28;20044;-65
2022/04/30 08:45:47;;;;;;;7.30;4.13;;;14.90;64.60;;;;;;5033535;28;20691;-64
2022/04/30 08:48:15;;;;;;;8.23;4.40;;;15.50;63.40;;;;;;5034334;28;20037;-66
2022/04/30 08:50:44;;;;;;;5.28;4.00;;;15.80;62.10;;;;;;5038135;28;20040;-64
2022/04/30 08:53:11;;;;;;;5.43;3.70;;;15.90;61.70;;;;;;5052345;28;20194;-64
2022/04/30 08:55:37;;;;;;;5.88;4.25;;;15.90;61.60;;;;;;5051044;28;20057;-66
2022/04/30 08:58:03;;;;;;;6.97;4.82;;;15.90;60.90;;;;;;5042431;28;20041;-64
2022/04/30 09:00:30;;;;;;;6.95;4.57;;;15.80;60.20;;;;;;5049431;28;20037;-66
2022/04/30 09:02:58;;;;;;;6.65;4.80;;;15.70;59.90;;;;;;5051100;28;20040;-64
2022/04/30 09:05:31;;;;;;;8.30;4.60;;;15.70;59.80;;;;;;5051739;28;20428;-64
2022/04/30 09:07:58;;;;;;;7.40;3.88;;;15.50;58.30;;;;;;5047270;28;20123;-64
2022/04/30 09:10:30;;;;;;;9.48;3.88;;;15.40;59.70;;;;;;5049681;28;20576;-64
2022/04/30 09:13:08;;;;;;;5.88;3.65;;;15.40;59.30;;;;;;5039273;28;20046;-64
2022/04/30 09:15:35;;;;;;;5.70;3.60;;;15.40;58.00;;;;;;5048703;28;20056;-64
2022/04/30 09:18:02;;;;;;;7.72;3.80;;;15.30;58.90;;;;;;5045588;28;20128;-65
2022/04/30 09:20:30;;;;;;;4.93;3.88;;;15.30;58.50;;;;;;5041547;28;20497;-64
2022/04/30 09:22:56;;;;;;;6.18;3.55;;;15.20;58.70;;;;;;5050368;28;20037;-64
2022/04/30 09:25:23;;;;;;;7.28;4.10;;;15.00;58.90;;;;;;5048968;28;20037;-66
2022/04/30 09:27:51;;;;;;;8.77;4.45;;;15.00;59.00;;;;;;5045353;28;20033;-65
2022/04/30 09:30:25;;;;;;;5.20;4.60;;;14.90;58.90;;;;;;5042281;28;20030;-65
2022/04/30 09:33:06;;;;;;;7.22;4.63;;;14.60;58.90;;;;;;5031331;28;20498;-65
2022/04/30 09:38:18;;;;;;;7.63;3.92;;;14.40;59.50;;;;;;5040132;28;20132;-66
2022/04/30 09:40:57;;;;;;;6.97;4.30;;;14.30;60.10;;;;;;5049019;28;20136;-64
2022/04/30 09:43:36;;;;;;;5.97;4.38;;;14.20;60.00;;;;;;5031373;28;20044;-65
2022/04/30 09:46:04;;;;;;;5.85;4.25;;;14.20;60.30;;;;;;5035369;28;20045;-65
2022/04/30 09:54:02;;;;;;;4.82;3.92;;;14.00;60.40;;;;;;5050057;28;20049;-65
2022/04/30 09:56:35;;;;;;;10.43;4.40;;;14.00;60.50;;;;;;5045506;28;20068;-65
2022/04/30 09:59:05;;;;;;;4.82;4.22;;;14.00;60.50;;;;;;5044809;28;20064;-64
2022/04/30 10:01:34;;;;;;;8.40;4.73;;;14.10;60.70;;;;;;5044691;28;20044;-66
2022/04/30 10:04:06;;;;;;;7.00;4.65;;;14.00;60.80;;;;;;5039790;28;20157;-65
2022/04/30 10:06:33;;;;;;;7.13;4.50;;;14.10;60.70;;;;;;5036466;28;20052;-65
2022/04/30 10:09:00;;;;;;;7.82;4.47;;;14.00;60.80;;;;;;5035822;28;20116;-65
2022/04/30 10:11:47;;;;;;;8.25;5.10;;;14.00;60.90;;;;;;5047743;28;20130;-65
2022/04/30 10:14:50;;;;;;;10.38;5.15;;;14.00;61.10;;;;;;5050405;28;20523;-64
2022/04/30 10:19:43;;;;;;;7.13;4.55;;;13.80;61.60;;;;;;5047160;28;20045;-66
2022/04/30 10:22:16;;;;;;;8.48;4.80;;;13.90;61.30;;;;;;5041224;28;20063;-64
2022/04/30 10:24:49;;;;;;;7.53;4.38;;;14.00;61.10;;;;;;5036944;28;20090;-64
2022/04/30 10:27:17;;;;;;;8.40;4.82;;;14.00;60.90;;;;;;5032455;28;20572;-64
2022/04/30 10:29:57;;;;;;;6.43;4.72;;;14.00;60.60;;;;;;5034219;28;20033;-64
2022/04/30 10:32:37;;;;;;;8.90;5.18;;;14.10;60.40;;;;;;5037854;28;20041;-64
2022/04/30 10:35:04;;;;;;;8.48;5.00;;;14.20;60.30;;;;;;5043208;28;20072;-65
2022/04/30 10:37:30;;;;;;;7.85;4.88;;;14.10;60.60;;;;;;5035284;28;20535;-64
2022/04/30 10:40:04;;;;;;;7.82;4.90;;;14.20;60.40;;;;;;5030495;28;20132;-64
2022/04/30 10:42:43;;;;;;;7.22;4.93;;;14.30;60.10;;;;;;5044005;28;20067;-66
2022/04/30 10:45:13;;;;;;;7.07;5.05;;;14.40;59.70;;;;;;5046859;28;20052;-64
2022/04/30 10:47:56;;;;;;;9.38;4.70;;;14.50;59.80;;;;;;5040790;28;20076;-64
2022/04/30 10:50:25;;;;;;;10.60;5.03;;;14.50;59.60;;;;;;5042492;28;20049;-66
2022/04/30 10:52:51;;;;;;;8.45;5.05;;;14.60;59.60;;;;;;5048529;28;20037;-65
2022/04/30 10:55:19;;;;;;;9.98;4.78;;;14.70;59.10;;;;;;5035681;28;20049;-64
2022/04/30 10:57:45;;;;;;;7.78;4.95;;;14.70;58.90;;;;;;5036829;28;20045;-64
2022/04/30 11:00:12;;;;;;;7.00;4.53;;;14.70;58.90;;;;;;5041296;28;20045;-66
2022/04/30 11:02:39;;;;;;;10.20;4.25;;;14.80;58.60;;;;;;5039901;28;20052;-65
2022/04/30 11:05:05;;;;;;;7.03;4.80;;;14.80;58.40;;;;;;5039458;28;20047;-65
2022/04/30 11:07:32;;;;;;;6.60;4.07;;;14.70;58.40;;;;;;5047172;28;20041;-64
2022/04/30 11:09:57;;;;;;;6.80;3.90;;;14.70;58.30;;;;;;5049608;28;20126;-64
2022/04/30 11:12:30;;;;;;;8.73;4.30;;;14.70;58.10;;;;;;5037639;28;20454;-64
2022/04/30 11:14:56;;;;;;;6.25;3.70;;;14.70;57.70;;;;;;5034740;28;20032;-64
2022/04/30 11:17:22;;;;;;;6.95;3.67;;;14.70;57.50;;;;;;5053790;28;20045;-64
2022/04/30 11:19:48;;;;;;;7.90;4.35;;;14.70;57.10;;;;;;5040922;28;20047;-63
2022/04/30 11:22:14;;;;;;;4.82;3.40;;;14.80;56.90;;;;;;5054459;28;20447;-65
2022/04/30 11:24:41;;;;;;;7.07;4.10;;;14.70;57.00;;;;;;5037381;28;20033;-63
2022/04/30 11:27:08;;;;;;;6.00;4.28;;;14.80;57.10;;;;;;5042487;28;20386;-64
2022/04/30 11:29:36;;;;;;;6.82;4.10;;;14.90;57.30;;;;;;5049883;28;20603;-64
2022/04/30 11:32:03;;;;;;;7.47;4.57;;;14.90;57.20;;;;;;5052418;28;20453;-63
2022/04/30 11:34:29;;;;;;;6.38;4.60;;;14.80;57.00;;;;;;5051940;28;20086;-65
2022/04/30 11:36:57;;;;;;;6.60;4.30;;;14.90;56.70;;;;;;5042765;28;20037;-64
2022/04/30 11:39:23;;;;;;;8.00;4.65;;;14.80;56.70;;;;;;5050466;28;20683;-64
2022/04/30 11:41:52;;;;;;;9.02;4.50;;;14.90;56.60;;;;;;5052817;28;20047;-64
2022/04/30 11:44:19;;;;;;;6.78;4.72;;;14.90;56.60;;;;;;5041312;28;20038;-65
2022/04/30 11:46:46;;;;;;;6.15;4.38;;;14.90;56.60;;;;;;5044718;28;20045;-64
2022/04/30 11:49:13;;;;;;;8.90;4.75;;;15.00;56.50;;;;;;5039961;28;20078;-65
2022/04/30 11:51:40;;;;;;;5.55;4.45;;;15.00;56.50;;;;;;5047917;28;20509;-64
2022/04/30 11:54:10;;;;;;;5.13;3.65;;;15.00;56.90;;;;;;5048790;28;20409;-63
2022/04/30 11:56:38;;;;;;;8.55;4.35;;;15.10;56.40;;;;;;5033337;28;20804;-65
2022/04/30 11:59:06;;;;;;;8.10;4.28;;;15.20;56.30;;;;;;5042649;28;20493;-65
2022/04/30 12:01:38;;;;;;;5.20;4.28;;;15.20;56.20;;;;;;5052745;28;20048;-64
2022/04/30 12:04:11;;;;;;;6.97;4.32;;;15.20;55.60;;;;;;5047842;28;20493;-65
2022/04/30 12:06:38;;;;;;;8.45;4.70;;;15.10;55.90;;;;;;5033749;28;20102;-63
2022/04/30 12:09:14;;;;;;;5.57;3.85;;;15.10;55.80;;;;;;5046979;28;20587;-64
2022/04/30 12:11:44;;;;;;;6.72;4.03;;;15.20;55.00;;;;;;5040241;28;20041;-65
2022/04/30 12:14:11;;;;;;;5.57;4.30;;;15.20;55.50;;;;;;5035154;28;20080;-65
2022/04/30 12:16:39;;;;;;;6.57;4.03;;;15.30;55.40;;;;;;5049765;28;20080;-64
2022/04/30 12:24:43;;;;;;;6.78;3.92;;;15.40;54.80;;;;;;5036479;28;20056;-64
2022/04/30 12:27:10;;;;;;;7.15;3.72;;;15.20;54.80;;;;;;5033238;28;20572;-65
2022/04/30 12:29:37;;;;;;;4.00;3.35;;;15.20;55.40;;;;;;5045434;28;20091;-65
2022/04/30 12:32:04;;;;;;;4.88;3.53;;;15.10;54.70;;;;;;5050652;28;20041;-65
2022/04/30 12:34:37;;;;;;;5.90;3.80;;;15.00;54.50;;;;;;5051106;28;20391;-67
2022/04/30 12:37:02;;;;;;;6.47;4.10;;;15.00;54.30;;;;;;5036212;28;20132;-65
2022/04/30 12:39:28;;;;;;;6.53;3.65;;;15.10;54.40;;;;;;5033256;28;20123;-64
2022/04/30 12:41:57;;;;;;;6.13;3.88;;;15.00;54.40;;;;;;5036822;28;20465;-65
2022/04/30 12:44:24;;;;;;;6.53;3.65;;;15.20;54.60;;;;;;5048225;28;20041;-64
2022/04/30 12:46:49;;;;;;;7.30;4.20;;;15.10;54.50;;;;;;5049021;28;20477;-65
2022/04/30 12:49:17;;;;;;;6.15;3.97;;;15.10;54.50;;;;;;5036187;28;20030;-64
2022/04/30 12:51:44;;;;;;;5.38;3.33;;;15.20;54.40;;;;;;5033455;28;20037;-67
2022/04/30 12:54:12;;;;;;;4.78;3.70;;;15.10;54.20;;;;;;5048455;28;20055;-70
2022/04/30 12:56:43;;;;;;;8.38;4.10;;;15.30;54.00;;;;;;5028718;28;20081;-67
2022/04/30 12:59:09;;;;;;;5.43;3.60;;;15.30;54.60;;;;;;5029092;28;20067;-67
2022/04/30 13:01:37;;;;;;;7.45;4.22;;;15.30;54.20;;;;;;5031680;28;20080;-67
2022/04/30 13:04:03;;;;;;;6.68;4.05;;;15.30;54.50;;;;;;5048467;28;20045;-66
2022/04/30 13:06:29;;;;;;;7.55;3.65;;;15.30;54.50;;;;;;5031070;28;20046;-67
2022/04/30 13:14:27;;;;;;;6.25;3.63;;;15.30;54.00;;;;;;5034456;28;20045;-66
2022/04/30 13:16:53;;;;;;;6.43;4.18;;;15.30;53.40;;;;;;5036127;28;20045;-67
2022/04/30 13:19:19;;;;;;;6.68;3.92;;;15.20;53.20;;;;;;5024311;28;20044;-67
2022/04/30 13:21:48;;;;;;;7.05;3.60;;;15.10;53.70;;;;;;5037966;28;20041;-67
2022/04/30 13:24:14;;;;;;;5.95;3.72;;;15.10;54.00;;;;;;5030435;28;20069;-67
2022/04/30 13:26:41;;;;;;;5.53;4.07;;;15.10;54.20;;;;;;5038439;28;20033;-67
2022/04/30 13:29:11;;;;;;;6.93;3.88;;;15.10;54.30;;;;;;5041164;28;20056;-67
2022/04/30 13:31:40;;;;;;;5.53;3.97;;;15.10;54.40;;;;;;5048672;28;20056;-66
2022/04/30 13:34:06;;;;;;;6.45;3.60;;;15.20;54.50;;;;;;5043410;28;20055;-67
2022/04/30 13:36:36;;;;;;;5.22;3.97;;;15.10;54.60;;;;;;5045665;28;20072;-67
2022/04/30 13:39:02;;;;;;;5.97;3.38;;;15.10;53.40;;;;;;5042535;28;20082;-67